This is the latest recevied weather packets stored in our database for station/object K5GHS-1. If no packets are shown the sender has not sent any weather packets the latest 1 day(s).
| Time | Temp. | Humidity | Pressure | Rain* | Wind** | Luminosity | Snow |
|---|---|---|---|---|---|---|---|
| 1778039277 | 17.78° C | 79% | 1007.7 hPa | 0 mm | 0 m/s | 0 W/m² | - |
| 1778038974 | 17.78° C | 79% | 1007.3 hPa | 0 mm | 0 m/s | 0 W/m² | - |
| 1778038670 | 17.78° C | 79% | 1007.4 hPa | 0 mm | 0.89 m/s, 70° | 0 W/m² | - |
| 1778038368 | 18.33° C | 79% | 1007.1 hPa | 0 mm | 0 m/s | 0 W/m² | - |
| 1778038065 | 18.33° C | 78% | 1007.3 hPa | 0 mm | 0 m/s | 0 W/m² | - |
| 1778037761 | 18.33° C | 78% | 1007.2 hPa | 0 mm | 0.45 m/s, 74° | 0 W/m² | - |
| 1778037458 | 18.89° C | 78% | 1006.9 hPa | 0 mm | 0.45 m/s, 71° | 0 W/m² | - |
| 1778037156 | 18.89° C | 78% | 1007 hPa | 0 mm | 0.45 m/s, 68° | 0 W/m² | - |
| 1778036854 | 19.44° C | 77% | 1006.9 hPa | 0 mm | 0.45 m/s, 194° | 0 W/m² | - |
| 1778036551 | 19.44° C | 77% | 1006.7 hPa | 0 mm | 0.45 m/s, 64° | 0 W/m² | - |
| 1778036247 | 20° C | 76% | 1006.8 hPa | 0 mm | 0 m/s | 0 W/m² | - |
| 1778035944 | 20° C | 77% | 1006.6 hPa | 0 mm | 0.45 m/s, 76° | 0 W/m² | - |
| 1778035641 | 20.56° C | 77% | 1006.2 hPa | 0 mm | 0.45 m/s, 88° | 0 W/m² | - |
| 1778035338 | 20.56° C | 76% | 1006 hPa | 0 mm | 0 m/s | 0 W/m² | - |
| 1778035034 | 20.56° C | 76% | 1006 hPa | 0 mm | 0 m/s | 0 W/m² | - |
| 1778034731 | 20.56° C | 76% | 1005.9 hPa | 0 mm | 0 m/s | 0 W/m² | - |
| 1778034428 | 20.56° C | 76% | 1005.5 hPa | 0 mm | 0 m/s | 0 W/m² | - |
| 1778034126 | 21.11° C | 76% | 1005.4 hPa | 0 mm | 0 m/s | 0 W/m² | - |
| 1778033823 | 21.11° C | 76% | 1005.6 hPa | 0 mm | 0 m/s | 0 W/m² | - |
| 1778033520 | 21.11° C | 76% | 1005.4 hPa | 0 mm | 0 m/s | 0 W/m² | - |
| 1778033217 | 21.11° C | 76% | 1005.2 hPa | 0 mm | 0 m/s | 0 W/m² | - |
| 1778032915 | 21.11° C | 76% | 1005.2 hPa | 0 mm | 0 m/s | 0 W/m² | - |
| 1778032612 | 21.67° C | 75% | 1004.9 hPa | 0 mm | 0 m/s | 0 W/m² | - |
| 1778032310 | 21.67° C | 75% | 1005.1 hPa | 0 mm | 0 m/s | 0 W/m² | - |
| 1778032007 | 21.67° C | 74% | 1005 hPa | 0 mm | 0 m/s | 0 W/m² | - |
* Rain latest hour (hover to see other rain measurements)
** Current wind speed in m/s (hover to see current wind gust speed)